Maersk Sentosa — WSEP — position and weather

sailwx.info

Track history (hours):
 
Tides and Currents Weather Stations Pressure Air Temp Water Temp Dewpoint Dewpoint Depression Visibility Wind Speed Wind Dir Waves Ship Positions

Maersk Sentosa

Owner: Maersk Line, Limited, Norfolk, VA. More information available from US FCC via Universal Licensing System and Coast Guard Vessel Documentation Center.

Last reported at 2017-Oct-22 10:00 UTC. Time now 2017-Oct-22 10:26 UTC.
Position N 49°29' E 000°04'.

Length 319 m; draft 13 m.

Type: Ship (hazmat cat B). MMSI: 369246000.

Date/timePositionNaut miles runAvg speedWind from/ knotsBaromVisibWave heightAir tempDewpointWater temp
2017-Oct-22 10:00N 49°29' E 000°04'714.1
2017-Oct-22 09:30N 49°32' W 000°06'3 6.3
2017-Oct-22 09:00N 49°35' W 000°05'3 6.3
2017-Oct-22 08:30N 49°38' W 000°04'4 8.0
2017-Oct-22 08:00N 49°42' W 000°02'611.0
2017-Oct-22 07:30N 49°47' E 000°03'5 9.8
2017-Oct-22 07:00N 49°50' E 000°07'611.6
2017-Oct-22 06:30N 49°55' E 000°12'611.8
2017-Oct-22 06:00N 50°00' E 000°17'3612.7
2017-Oct-22 03:08N 50°34' E 000°40'212.2
2017-Oct-22 02:59N 50°35' E 000°40'612.5
2017-Oct-22 02:30N 50°40' E 000°47'611.9
2017-Oct-22 02:00N 50°44' E 000°54'611.1
2017-Oct-22 01:30N 50°47' E 001°01'510.4
2017-Oct-22 01:00N 50°50' E 001°08'13 9.5
2017-Oct-21 23:40N 50°58' E 001°23'2 9.2
2017-Oct-21 23:28N 50°60' E 001°25'4 9.6
2017-Oct-21 23:00N 51°03' E 001°30'5 9.7
2017-Oct-21 22:30N 51°06' E 001°36'510.7
2017-Oct-21 22:00N 51°10' E 001°42'611.6
2017-Oct-21 21:30N 51°15' E 001°47'612.3
2017-Oct-21 21:00N 51°20' E 001°52'612.0
2017-Oct-21 20:30N 51°24' E 001°59'5 9.3
2017-Oct-21 20:00N 51°23' E 002°06'611.0
2017-Oct-21 19:30N 51°21' E 002°14'611.1
2017-Oct-21 19:00N 51°22' E 002°23'611.3
2017-Oct-21 18:30N 51°23' E 002°32'611.6
2017-Oct-21 18:00N 51°23' E 002°41'611.0
2017-Oct-21 17:30N 51°22' E 002°50'816.0
2017-Oct-21 17:00N 51°24' E 003°02'816.4
2017-Oct-21 16:30N 51°25' E 003°16'917.2
2017-Oct-21 16:00N 51°25' E 003°29'5 9.4
2017-Oct-21 15:30N 51°26' E 003°37'612.6
2017-Oct-21 15:00N 51°22' E 003°44'713.7
2017-Oct-21 14:30N 51°22' E 003°55'7 6.9
2017-Oct-21 13:31N 51°22' E 004°06'4 8.7
2017-Oct-21 13:01N 51°22' E 004°13'3 7.0
2017-Oct-21 12:31N 51°19' E 004°16'2 3.8
2017-Oct-21 12:00N 51°17' E 004°15'0 0.0
2017-Oct-21 11:31N 51°17' E 004°15'0 0.0
2017-Oct-21 10:59N 51°17' E 004°15'0 0.0
2017-Oct-21 10:29N 51°17' E 004°15'0 0.0
2017-Oct-21 09:59N 51°17' E 004°15'0 0.0
2017-Oct-21 09:29N 51°17' E 004°15'0 0.0
2017-Oct-21 08:59N 51°17' E 004°15'0 0.0
2017-Oct-21 08:29N 51°17' E 004°15'0 0.0
2017-Oct-21 07:59N 51°17' E 004°15'0 0.0
2017-Oct-21 07:29N 51°17' E 004°15'0 0.0
2017-Oct-21 06:59N 51°17' E 004°15'0 0.0
2017-Oct-21 06:29N 51°17' E 004°15'0 0.0
2017-Oct-21 05:56N 51°17' E 004°15'0 0.0
2017-Oct-21 05:29N 51°17' E 004°15'0 0.0
2017-Oct-21 04:59N 51°17' E 004°15'0 0.0
2017-Oct-21 04:29N 51°17' E 004°15'0 0.0
2017-Oct-21 03:59N 51°17' E 004°15'0 0.0
2017-Oct-21 03:29N 51°17' E 004°15'0 0.0
2017-Oct-21 02:59N 51°17' E 004°15'0 0.0
2017-Oct-21 02:29N 51°17' E 004°15'0 0.0
2017-Oct-21 01:56N 51°17' E 004°15'0 0.0
2017-Oct-21 01:29N 51°17' E 004°15'0 0.0
2017-Oct-21 00:59N 51°17' E 004°15'0 0.0
2017-Oct-21 00:26N 51°17' E 004°15'0 0.0
2017-Oct-20 23:59N 51°17' E 004°15'0 0.0
2017-Oct-20 23:29N 51°17' E 004°15'0 0.0
2017-Oct-20 22:59N 51°17' E 004°15'0 0.0
2017-Oct-20 22:29N 51°17' E 004°15'0 0.0
2017-Oct-20 21:59N 51°17' E 004°15'0 0.0
2017-Oct-20 21:29N 51°17' E 004°15'0 0.0
2017-Oct-20 20:59N 51°17' E 004°15'0 0.0
2017-Oct-20 20:29N 51°17' E 004°15'0 0.0
2017-Oct-20 19:59N 51°17' E 004°15'0 0.0
2017-Oct-20 19:26N 51°17' E 004°15'0 0.0
2017-Oct-20 18:59N 51°17' E 004°15'0 0.0
2017-Oct-20 18:29N 51°17' E 004°15'0 0.0
2017-Oct-20 17:59N 51°17' E 004°15'0 0.0
2017-Oct-20 17:29N 51°17' E 004°15'0 0.0
2017-Oct-20 16:59N 51°17' E 004°15'0 0.0
2017-Oct-20 16:29N 51°17' E 004°15'0 0.0
2017-Oct-20 15:59N 51°17' E 004°15'0 0.0
2017-Oct-20 15:29N 51°17' E 004°15'0 0.0
2017-Oct-20 14:56N 51°17' E 004°15'0 0.0
2017-Oct-20 13:59N 51°17' E 004°15'0 0.0
2017-Oct-20 13:29N 51°17' E 004°15'0 0.0
2017-Oct-20 12:56N 51°17' E 004°15'0 0.0
2017-Oct-20 12:29N 51°17' E 004°15'0 0.0
2017-Oct-20 11:56N 51°17' E 004°15'0 0.0
2017-Oct-20 11:29N 51°17' E 004°15'0 0.0
2017-Oct-20 10:59N 51°17' E 004°15'0 0.0
2017-Oct-20 10:29N 51°17' E 004°15'0 0.0
2017-Oct-20 09:59N 51°17' E 004°15'0 0.0
2017-Oct-20 09:29N 51°17' E 004°15'0 0.0
2017-Oct-20 08:59N 51°17' E 004°15'0 0.0
2017-Oct-20 08:29N 51°17' E 004°15'0 0.0
2017-Oct-20 07:59N 51°17' E 004°15'0 0.0
2017-Oct-20 07:29N 51°17' E 004°15'0 0.0
2017-Oct-20 06:59N 51°17' E 004°15'0 0.0
2017-Oct-20 06:30N 51°17' E 004°15'1 2.1
2017-Oct-20 06:00N 51°18' E 004°16'1 2.7
2017-Oct-20 05:30N 51°19' E 004°16'4 7.8
2017-Oct-20 05:00N 51°23' E 004°13'611.4
2017-Oct-20 04:31N 51°22' E 004°04'4 9.0
2017-Oct-20 04:00N 51°25' E 003°58'713.7
2017-Oct-20 03:30N 51°21' E 003°49'714.5
2017-Oct-20 03:00N 51°26' E 003°41'510.4
2017-Oct-20 02:31N 51°25' E 003°32'612.0
2017-Oct-20 02:01N 51°24' E 003°23'918.7
2017-Oct-20 01:30N 51°24' E 003°08'918.0
2017-Oct-20 01:01N 51°22' E 002°54'913.1
2017-Oct-20 00:21N 51°22' E 002°40'618.0
2017-Oct-20 00:01N 51°22' E 002°30'1224.7
2017-Oct-19 23:30N 51°19' E 002°11'1122.3
2017-Oct-19 23:00N 51°26' E 001°56'1122.7
2017-Oct-19 22:31N 51°35' E 001°46'1223.0
2017-Oct-19 22:00N 51°47' E 001°45'815.5
2017-Oct-19 21:31N 51°52' E 001°35'4 8.7
2017-Oct-19 21:00N 51°56' E 001°33'714.3
2017-Oct-19 20:30N 51°55' E 001°21'3 5.9
2017-Oct-19 20:00N 51°58' E 001°18'0 0.1
2017-Oct-19 19:29N 51°58' E 001°18'0 0.0
2017-Oct-19 18:56N 51°58' E 001°18'0 0.0
2017-Oct-19 18:29N 51°58' E 001°18'0 0.0
2017-Oct-19 17:59N 51°58' E 001°18'0 0.0
2017-Oct-19 17:29N 51°58' E 001°18'0 0.0
2017-Oct-19 16:59N 51°58' E 001°18'0 0.0
2017-Oct-19 16:29N 51°58' E 001°18'0 0.0
2017-Oct-19 15:59N 51°58' E 001°18'0 0.0
2017-Oct-19 15:29N 51°58' E 001°18'0 0.0
2017-Oct-19 14:59N 51°58' E 001°18'0 0.0
2017-Oct-19 14:29N 51°58' E 001°18'0 0.0
2017-Oct-19 13:59N 51°58' E 001°18'0 0.0
2017-Oct-19 13:29N 51°58' E 001°18'0 0.0
2017-Oct-19 12:59N 51°58' E 001°18'0 0.0
2017-Oct-19 12:29N 51°58' E 001°18'0 0.0
2017-Oct-19 11:59N 51°58' E 001°18'0 0.0
2017-Oct-19 11:29N 51°58' E 001°18'0 0.0
2017-Oct-19 10:59N 51°58' E 001°18'0 0.0
2017-Oct-19 10:29N 51°58' E 001°18'0 0.0
2017-Oct-19 09:59N 51°58' E 001°18'0 0.0
2017-Oct-19 09:29N 51°58' E 001°18'0 0.0
2017-Oct-19 08:59N 51°58' E 001°18'0 0.0
2017-Oct-19 08:29N 51°58' E 001°18'0 0.0
2017-Oct-19 07:59N 51°58' E 001°18'0 0.0
2017-Oct-19 07:29N 51°58' E 001°18'0 0.0
2017-Oct-19 06:59N 51°58' E 001°18'0 0.0
2017-Oct-19 06:29N 51°58' E 001°18'0 0.0
2017-Oct-19 05:59N 51°58' E 001°18'0 0.0
2017-Oct-19 05:29N 51°58' E 001°18'0 0.0
2017-Oct-19 04:59N 51°58' E 001°18'0 0.0
2017-Oct-19 04:29N 51°58' E 001°18'0 0.0
2017-Oct-19 03:59N 51°58' E 001°18'0 0.0
2017-Oct-19 03:29N 51°58' E 001°18'0 0.0
2017-Oct-19 02:59N 51°58' E 001°18'0 0.0
2017-Oct-19 02:29N 51°58' E 001°18'0 0.0
2017-Oct-19 01:59N 51°58' E 001°18'0 0.0
2017-Oct-19 01:29N 51°58' E 001°18'0 0.0
2017-Oct-19 00:59N 51°58' E 001°18'0 0.0
2017-Oct-19 00:29N 51°58' E 001°18'0 0.0
2017-Oct-18 23:59N 51°58' E 001°18'0 0.0
2017-Oct-18 23:29N 51°58' E 001°18'0 0.0
2017-Oct-18 22:59N 51°58' E 001°18'0 0.0
2017-Oct-18 22:29N 51°58' E 001°18'0 0.0
2017-Oct-18 21:59N 51°58' E 001°18'0 0.0
2017-Oct-18 21:29N 51°58' E 001°18'0 0.0
2017-Oct-18 20:59N 51°58' E 001°18'0 0.0
2017-Oct-18 20:29N 51°58' E 001°18'0 0.0
2017-Oct-18 19:59N 51°58' E 001°18'0 0.0
2017-Oct-18 19:29N 51°58' E 001°18'0 0.0
2017-Oct-18 18:59N 51°58' E 001°18'0 0.0
2017-Oct-18 18:29N 51°58' E 001°18'0 0.0
2017-Oct-18 17:59N 51°58' E 001°18'0 0.0
2017-Oct-18 17:29N 51°58' E 001°18'0 0.0
2017-Oct-18 16:59N 51°58' E 001°18'0 0.0
2017-Oct-18 16:29N 51°58' E 001°18'0 0.5
2017-Oct-18 16:00N 51°57' E 001°18'1 2.7
2017-Oct-18 15:31N 51°56' E 001°19'5 9.5
2017-Oct-18 15:00N 51°56' E 001°26'1110.7
2017-Oct-18 14:00N 51°52' E 001°42'3 5.4
2017-Oct-18 13:30N 51°54' E 001°45'4 7.6
2017-Oct-18 13:00N 51°57' E 001°46'4 7.4
2017-Oct-18 12:30N 52°01' E 001°50'3 6.8
2017-Oct-18 12:00N 52°03' E 001°53'5 9.1
2017-Oct-18 11:30N 52°07' E 001°58'4 8.5
2017-Oct-18 11:00N 52°09' E 002°03'3212.7
2017-Oct-18 08:30N 52°31' E 002°41'817.0
2017-Oct-18 08:01N 52°36' E 002°53'1017.7
2017-Oct-18 07:25N 52°42' E 003°06'819.3
2017-Oct-18 07:01N 52°47' E 003°16'1020.2
2017-Oct-18 06:30N 52°53' E 003°30'1019.8
2017-Oct-18 06:00N 52°60' E 003°43'1119.6
2017-Oct-18 05:27N 53°06' E 003°57'919.3
2017-Oct-18 05:00N 53°10' E 004°10'1218.4
2017-Oct-18 04:22N 53°19' E 004°24'1018.2
2017-Oct-18 03:47N 53°27' E 004°34'518.5
2017-Oct-18 03:30N 53°29' E 004°42'917.7
2017-Oct-18 03:00N 53°33' E 004°55'918.2
2017-Oct-18 02:30N 53°36' E 005°10'1019.1
2017-Oct-18 01:58N 53°40' E 005°26'8718.0
2017-Oct-17 21:10N 53°53' E 007°51'211.2
2017-Oct-17 20:58N 53°52' E 007°54'714.1
2017-Oct-17 20:30N 53°50' E 008°05'815.5
2017-Oct-17 20:00N 53°44' E 008°14'714.7
2017-Oct-17 19:30N 53°40' E 008°23'611.9
2017-Oct-17 19:00N 53°36' E 008°31'1 2.0
2017-Oct-17 18:30N 53°35' E 008°32'0 0.0
2017-Oct-17 18:00N 53°35' E 008°32'0 0.0
2017-Oct-17 17:30N 53°35' E 008°32'0 0.0
2017-Oct-17 17:00N 53°35' E 008°32'0 0.0
2017-Oct-17 16:30N 53°35' E 008°32'0 0.0
2017-Oct-17 16:00N 53°35' E 008°32'0 0.0
2017-Oct-17 15:30N 53°35' E 008°32'0 0.0
2017-Oct-17 15:00N 53°35' E 008°32'0 0.0
2017-Oct-17 14:30N 53°35' E 008°32'0 0.0
2017-Oct-17 14:00N 53°35' E 008°32'0 0.0
2017-Oct-17 13:30N 53°35' E 008°32'0 0.0
2017-Oct-17 13:00N 53°35' E 008°32'0 0.0
2017-Oct-17 12:30N 53°35' E 008°32'0 0.0
2017-Oct-17 12:00N 53°35' E 008°32'0 0.0
2017-Oct-17 11:30N 53°35' E 008°32'0 0.0
2017-Oct-17 11:00N 53°35' E 008°32'0 0.0
2017-Oct-17 10:30N 53°35' E 008°32'0 0.0
2017-Oct-17 10:00N 53°35' E 008°32'0 0.0
2017-Oct-17 09:30N 53°35' E 008°32'0 0.0
2017-Oct-17 09:00N 53°35' E 008°32'0 0.0
2017-Oct-17 08:30N 53°35' E 008°32'0 0.0
2017-Oct-17 08:00N 53°35' E 008°32'0 0.0
2017-Oct-17 07:30N 53°35' E 008°32'0 0.0
2017-Oct-17 07:00N 53°35' E 008°32'0 0.0
2017-Oct-17 06:30N 53°35' E 008°32'0 0.0
2017-Oct-17 06:00N 53°35' E 008°32'0 0.0
2017-Oct-17 05:30N 53°35' E 008°32'0 0.0
2017-Oct-17 05:00N 53°35' E 008°32'0 0.0
2017-Oct-17 04:30N 53°35' E 008°32'0 0.0
2017-Oct-17 04:00N 53°35' E 008°32'0 0.0
2017-Oct-17 03:30N 53°35' E 008°32'0 0.0
2017-Oct-17 03:00N 53°35' E 008°32'0 0.0
2017-Oct-17 02:30N 53°35' E 008°32'0 0.0
2017-Oct-17 02:00N 53°35' E 008°32'0 0.0
2017-Oct-17 01:30N 53°35' E 008°32'0 0.0
2017-Oct-17 01:00N 53°35' E 008°32'0 0.0
2017-Oct-17 00:30N 53°35' E 008°32'0 0.0
2017-Oct-17 00:00N 53°35' E 008°32'0 0.0
2017-Oct-16 23:30N 53°35' E 008°32'0 0.0
2017-Oct-16 23:00N 53°35' E 008°32'0 0.0
2017-Oct-16 22:30N 53°35' E 008°32'0 0.0
2017-Oct-16 22:00N 53°35' E 008°32'0 0.0
2017-Oct-16 21:30N 53°35' E 008°32'0 0.0
2017-Oct-16 21:00N 53°35' E 008°32'0 0.0
2017-Oct-16 20:30N 53°35' E 008°32'0 0.0
2017-Oct-16 20:00N 53°35' E 008°32'0 0.0
2017-Oct-16 19:30N 53°35' E 008°32'0 0.0
2017-Oct-16 19:00N 53°35' E 008°32'0 0.0
2017-Oct-16 18:30N 53°35' E 008°32'0 0.0
2017-Oct-16 18:00N 53°35' E 008°32'0 0.0
2017-Oct-16 17:30N 53°35' E 008°32'0 0.0
2017-Oct-16 17:00N 53°35' E 008°32'0 0.0
2017-Oct-16 16:30N 53°35' E 008°32'0 0.0
2017-Oct-16 16:00N 53°35' E 008°32'0 0.0
2017-Oct-16 15:30N 53°35' E 008°32'0 0.0
2017-Oct-16 15:00N 53°35' E 008°32'0 0.0
2017-Oct-16 14:30N 53°35' E 008°32'0 0.0
2017-Oct-16 13:30N 53°35' E 008°32'0 0.0
2017-Oct-16 13:00N 53°35' E 008°32'0 0.0
2017-Oct-16 12:30N 53°35' E 008°32'0 0.0
2017-Oct-16 12:00N 53°35' E 008°32'0 0.0
2017-Oct-16 11:30N 53°35' E 008°32'0 0.0
2017-Oct-16 11:00N 53°35' E 008°32'0 0.0
2017-Oct-16 10:30N 53°35' E 008°32'0 0.0
2017-Oct-16 10:00N 53°35' E 008°32'0 0.0
2017-Oct-16 09:30N 53°35' E 008°32'0 0.0
2017-Oct-16 09:00N 53°35' E 008°32'0 0.0
2017-Oct-16 08:30N 53°35' E 008°32'0 0.0
2017-Oct-16 08:00N 53°35' E 008°32'0 0.0
2017-Oct-16 07:30N 53°35' E 008°32'0 0.0
2017-Oct-16 07:00N 53°35' E 008°32'0 0.0
2017-Oct-16 06:30N 53°35' E 008°32'0 0.0
2017-Oct-16 06:00N 53°35' E 008°32'0 0.0
2017-Oct-16 05:30N 53°35' E 008°32'0 0.0
2017-Oct-16 05:00N 53°35' E 008°32'0 0.0
2017-Oct-16 04:30N 53°35' E 008°32'0 0.0
2017-Oct-16 04:00N 53°35' E 008°32'0 0.0
2017-Oct-16 03:30N 53°35' E 008°32'0 0.0
2017-Oct-16 03:00N 53°35' E 008°32'0 0.0
2017-Oct-16 02:30N 53°35' E 008°32'0 0.0
2017-Oct-16 02:00N 53°35' E 008°32'0 0.0
2017-Oct-16 01:30N 53°35' E 008°32'0 0.0
2017-Oct-16 01:00N 53°35' E 008°32'0 0.0
2017-Oct-16 00:30N 53°35' E 008°32'0 0.0
2017-Oct-16 00:00N 53°35' E 008°32'0 0.4
2017-Oct-15 23:30N 53°35' E 008°32'3 6.7
2017-Oct-15 23:00N 53°37' E 008°28'510.5
2017-Oct-15 22:30N 53°41' E 008°21'815.1
2017-Oct-15 22:00N 53°46' E 008°11'713.9
2017-Oct-15 21:30N 53°50' E 008°03'713.0
2017-Oct-15 21:00N 53°52' E 007°52'510.2
2017-Oct-15 20:30N 53°53' E 007°44'6 9.6
2017-Oct-15 19:54N 53°53' E 007°34'2 4.6
2017-Oct-15 19:30N 53°53' E 007°31'1 1.2
2017-Oct-15 19:01N 53°53' E 007°30'3 6.1
2017-Oct-15 18:30N 53°53' E 007°25'4 8.9
2017-Oct-15 18:00N 53°52' E 007°17'5 9.4
2017-Oct-15 17:26N 53°51' E 007°08'510.8
2017-Oct-15 16:59N 53°51' E 007°00'511.0
2017-Oct-15 16:30N 53°49' E 006°51'714.7
2017-Oct-15 16:00N 53°47' E 006°40'816.1
2017-Oct-15 15:30N 53°44' E 006°27'816.0
2017-Oct-15 15:00N 53°42' E 006°14'1716.0
2017-Oct-15 13:57N 53°37' E 005°47'715.9
2017-Oct-15 13:30N 53°35' E 005°35'816.0
2017-Oct-15 13:00N 53°33' E 005°23'915.9
2017-Oct-15 12:27N 53°30' E 005°08'715.9
2017-Oct-15 12:00N 53°28' E 004°57'815.9
2017-Oct-15 11:30N 53°24' E 004°45'918.0
2017-Oct-15 11:01N 53°17' E 004°38'918.2
2017-Oct-15 10:30N 53°08' E 004°31'917.7
2017-Oct-15 10:00N 53°00' E 004°24'917.5
2017-Oct-15 09:30N 52°53' E 004°17'917.4
2017-Oct-15 09:00N 52°45' E 004°10'817.0
2017-Oct-15 08:30N 52°39' E 004°00'917.8
2017-Oct-15 08:00N 52°33' E 003°50'917.6
2017-Oct-15 07:30N 52°27' E 003°39'917.4
2017-Oct-15 07:00N 52°20' E 003°30'917.3
2017-Oct-15 06:30N 52°14' E 003°21'917.1
2017-Oct-15 06:00N 52°08' E 003°11'917.9
2017-Oct-15 05:30N 52°01' E 003°00'917.8
2017-Oct-15 05:00N 51°55' E 002°51'917.6
2017-Oct-15 04:30N 51°48' E 002°42'917.6
2017-Oct-15 04:00N 51°42' E 002°31'917.5
2017-Oct-15 03:30N 51°35' E 002°22'917.4
2017-Oct-15 03:00N 51°30' E 002°12'917.5
2017-Oct-15 02:30N 51°24' E 002°01'917.4
2017-Oct-15 02:00N 51°16' E 001°53'917.2
2017-Oct-15 01:30N 51°10' E 001°45'816.9
2017-Oct-15 01:00N 51°03' E 001°38'816.4
2017-Oct-15 00:30N 50°56' E 001°31'816.3
2017-Oct-15 00:00N 50°49' E 001°24'816.8
2017-Oct-14 23:30N 50°41' E 001°19'816.8
2017-Oct-14 23:00N 50°35' E 001°10'1016.9
2017-Oct-14 22:25N 50°28' E 000°59'716.6
2017-Oct-14 22:00N 50°26' E 000°48'816.7
2017-Oct-14 21:30N 50°24' E 000°36'816.7
2017-Oct-14 21:00N 50°22' E 000°23'816.7
2017-Oct-14 20:30N 50°19' E 000°11'816.8
2017-Oct-14 20:00N 50°17' W 000°02'817.0
2017-Oct-14 19:30N 50°13' W 000°13'917.2
2017-Oct-14 19:00N 50°09' W 000°26'917.5
2017-Oct-14 18:31N 50°05' W 000°38'917.8
2017-Oct-14 18:00N 50°01' W 000°50'918.3
2017-Oct-14 17:30N 49°57' W 001°03'918.6
2017-Oct-14 17:01N 49°52' W 001°15'1019.0
2017-Oct-14 16:31N 49°48' W 001°28'917.3
2017-Oct-14 16:00N 49°43' W 001°40'4 8.9
2017-Oct-14 15:30N 49°45' W 001°46'611.0
2017-Oct-14 15:00N 49°48' W 001°54'510.9
2017-Oct-14 14:30N 49°50' W 002°01'917.0
2017-Oct-14 14:00N 49°54' W 002°14'918.6
2017-Oct-14 13:30N 49°53' W 002°28'918.5
2017-Oct-14 13:00N 49°51' W 002°42'918.2
2017-Oct-14 12:30N 49°49' W 002°55'918.0
2017-Oct-14 12:00N 49°49' W 003°09'918.0
2017-Oct-14 11:30N 49°48' W 003°23'917.9
2017-Oct-14 11:01N 49°48' W 003°37'917.7
2017-Oct-14 10:30N 49°47' W 003°51'917.6
2017-Oct-14 10:01N 49°45' W 004°04'917.5
2017-Oct-14 09:30N 49°45' W 004°18'917.5
2017-Oct-14 09:01N 49°44' W 004°31'917.5
2017-Oct-14 08:30N 49°44' W 004°45'917.4
2017-Oct-14 08:00N 49°43' W 004°58'917.4
2017-Oct-14 07:30N 49°42' W 005°12'917.3
2017-Oct-14 07:00N 49°42' W 005°25'1017.4
2017-Oct-14 06:25N 49°41' W 005°41'717.2
2017-Oct-14 06:01N 49°40' W 005°52'1017.2
2017-Oct-14 05:25N 49°39' W 006°08'716.9
2017-Oct-14 05:00N 49°39' W 006°18'916.9
2017-Oct-14 04:29N 49°38' W 006°32'816.9
2017-Oct-14 04:00N 49°36' W 006°44'917.4
2017-Oct-14 03:29N 49°34' W 006°58'817.7
2017-Oct-14 03:01N 49°32' W 007°10'  
Track history (hours):
 
Tides and Currents Weather Stations Pressure Air Temp Water Temp Dewpoint Dewpoint Depression Visibility Wind Speed Wind Dir Waves Ship Positions

Maersk Sentosa

Owner: Maersk Line, Limited, Norfolk, VA. More information available from US FCC via Universal Licensing System and Coast Guard Vessel Documentation Center.

Last reported at 2017-Oct-22 10:00 UTC. Time now 2017-Oct-22 10:26 UTC.
Position N 49°29' E 000°04'.

Length 319 m; draft 13 m.

Type: Ship (hazmat cat B). MMSI: 369246000.

Date/timePositionNaut miles runAvg speedWind from/ knotsBaromVisibWave heightAir tempDewpointWater temp
2017-Oct-22 10:00N 49°29' E 000°04'714.1
2017-Oct-22 09:30N 49°32' W 000°06'3 6.3
2017-Oct-22 09:00N 49°35' W 000°05'3 6.3
2017-Oct-22 08:30N 49°38' W 000°04'4 8.0
2017-Oct-22 08:00N 49°42' W 000°02'611.0
2017-Oct-22 07:30N 49°47' E 000°03'5 9.8
2017-Oct-22 07:00N 49°50' E 000°07'611.6
2017-Oct-22 06:30N 49°55' E 000°12'611.8
2017-Oct-22 06:00N 50°00' E 000°17'3612.7
2017-Oct-22 03:08N 50°34' E 000°40'212.2
2017-Oct-22 02:59N 50°35' E 000°40'612.5
2017-Oct-22 02:30N 50°40' E 000°47'611.9
2017-Oct-22 02:00N 50°44' E 000°54'611.1
2017-Oct-22 01:30N 50°47' E 001°01'510.4
2017-Oct-22 01:00N 50°50' E 001°08'13 9.5
2017-Oct-21 23:40N 50°58' E 001°23'2 9.2
2017-Oct-21 23:28N 50°60' E 001°25'4 9.6
2017-Oct-21 23:00N 51°03' E 001°30'5 9.7
2017-Oct-21 22:30N 51°06' E 001°36'510.7
2017-Oct-21 22:00N 51°10' E 001°42'611.6
2017-Oct-21 21:30N 51°15' E 001°47'612.3
2017-Oct-21 21:00N 51°20' E 001°52'612.0
2017-Oct-21 20:30N 51°24' E 001°59'5 9.3
2017-Oct-21 20:00N 51°23' E 002°06'611.0
2017-Oct-21 19:30N 51°21' E 002°14'611.1
2017-Oct-21 19:00N 51°22' E 002°23'611.3
2017-Oct-21 18:30N 51°23' E 002°32'611.6
2017-Oct-21 18:00N 51°23' E 002°41'611.0
2017-Oct-21 17:30N 51°22' E 002°50'816.0
2017-Oct-21 17:00N 51°24' E 003°02'816.4
2017-Oct-21 16:30N 51°25' E 003°16'917.2
2017-Oct-21 16:00N 51°25' E 003°29'5 9.4
2017-Oct-21 15:30N 51°26' E 003°37'612.6
2017-Oct-21 15:00N 51°22' E 003°44'713.7
2017-Oct-21 14:30N 51°22' E 003°55'7 6.9
2017-Oct-21 13:31N 51°22' E 004°06'4 8.7
2017-Oct-21 13:01N 51°22' E 004°13'3 7.0
2017-Oct-21 12:31N 51°19' E 004°16'2 3.8
2017-Oct-21 12:00N 51°17' E 004°15'0 0.0
2017-Oct-21 11:31N 51°17' E 004°15'0 0.0
2017-Oct-21 10:59N 51°17' E 004°15'0 0.0
2017-Oct-21 10:29N 51°17' E 004°15'0 0.0
2017-Oct-21 09:59N 51°17' E 004°15'0 0.0
2017-Oct-21 09:29N 51°17' E 004°15'0 0.0
2017-Oct-21 08:59N 51°17' E 004°15'0 0.0
2017-Oct-21 08:29N 51°17' E 004°15'0 0.0
2017-Oct-21 07:59N 51°17' E 004°15'0 0.0
2017-Oct-21 07:29N 51°17' E 004°15'0 0.0
2017-Oct-21 06:59N 51°17' E 004°15'0 0.0
2017-Oct-21 06:29N 51°17' E 004°15'0 0.0
2017-Oct-21 05:56N 51°17' E 004°15'0 0.0
2017-Oct-21 05:29N 51°17' E 004°15'0 0.0
2017-Oct-21 04:59N 51°17' E 004°15'0 0.0
2017-Oct-21 04:29N 51°17' E 004°15'0 0.0
2017-Oct-21 03:59N 51°17' E 004°15'0 0.0
2017-Oct-21 03:29N 51°17' E 004°15'0 0.0
2017-Oct-21 02:59N 51°17' E 004°15'0 0.0
2017-Oct-21 02:29N 51°17' E 004°15'0 0.0
2017-Oct-21 01:56N 51°17' E 004°15'0 0.0
2017-Oct-21 01:29N 51°17' E 004°15'0 0.0
2017-Oct-21 00:59N 51°17' E 004°15'0 0.0
2017-Oct-21 00:26N 51°17' E 004°15'0 0.0
2017-Oct-20 23:59N 51°17' E 004°15'0 0.0
2017-Oct-20 23:29N 51°17' E 004°15'0 0.0
2017-Oct-20 22:59N 51°17' E 004°15'0 0.0
2017-Oct-20 22:29N 51°17' E 004°15'0 0.0
2017-Oct-20 21:59N 51°17' E 004°15'0 0.0
2017-Oct-20 21:29N 51°17' E 004°15'0 0.0
2017-Oct-20 20:59N 51°17' E 004°15'0 0.0
2017-Oct-20 20:29N 51°17' E 004°15'0 0.0
2017-Oct-20 19:59N 51°17' E 004°15'0 0.0
2017-Oct-20 19:26N 51°17' E 004°15'0 0.0
2017-Oct-20 18:59N 51°17' E 004°15'0 0.0
2017-Oct-20 18:29N 51°17' E 004°15'0 0.0
2017-Oct-20 17:59N 51°17' E 004°15'0 0.0
2017-Oct-20 17:29N 51°17' E 004°15'0 0.0
2017-Oct-20 16:59N 51°17' E 004°15'0 0.0
2017-Oct-20 16:29N 51°17' E 004°15'0 0.0
2017-Oct-20 15:59N 51°17' E 004°15'0 0.0
2017-Oct-20 15:29N 51°17' E 004°15'0 0.0
2017-Oct-20 14:56N 51°17' E 004°15'0 0.0
2017-Oct-20 13:59N 51°17' E 004°15'0 0.0
2017-Oct-20 13:29N 51°17' E 004°15'0 0.0
2017-Oct-20 12:56N 51°17' E 004°15'0 0.0
2017-Oct-20 12:29N 51°17' E 004°15'0 0.0
2017-Oct-20 11:56N 51°17' E 004°15'0 0.0
2017-Oct-20 11:29N 51°17' E 004°15'0 0.0
2017-Oct-20 10:59N 51°17' E 004°15'0 0.0
2017-Oct-20 10:29N 51°17' E 004°15'0 0.0
2017-Oct-20 09:59N 51°17' E 004°15'0 0.0
2017-Oct-20 09:29N 51°17' E 004°15'0 0.0
2017-Oct-20 08:59N 51°17' E 004°15'0 0.0
2017-Oct-20 08:29N 51°17' E 004°15'0 0.0
2017-Oct-20 07:59N 51°17' E 004°15'0 0.0
2017-Oct-20 07:29N 51°17' E 004°15'0 0.0
2017-Oct-20 06:59N 51°17' E 004°15'0 0.0
2017-Oct-20 06:30N 51°17' E 004°15'1 2.1
2017-Oct-20 06:00N 51°18' E 004°16'1 2.7
2017-Oct-20 05:30N 51°19' E 004°16'4 7.8
2017-Oct-20 05:00N 51°23' E 004°13'611.4
2017-Oct-20 04:31N 51°22' E 004°04'4 9.0
2017-Oct-20 04:00N 51°25' E 003°58'713.7
2017-Oct-20 03:30N 51°21' E 003°49'714.5
2017-Oct-20 03:00N 51°26' E 003°41'510.4
2017-Oct-20 02:31N 51°25' E 003°32'612.0
2017-Oct-20 02:01N 51°24' E 003°23'918.7
2017-Oct-20 01:30N 51°24' E 003°08'918.0
2017-Oct-20 01:01N 51°22' E 002°54'913.1
2017-Oct-20 00:21N 51°22' E 002°40'618.0
2017-Oct-20 00:01N 51°22' E 002°30'1224.7
2017-Oct-19 23:30N 51°19' E 002°11'1122.3
2017-Oct-19 23:00N 51°26' E 001°56'1122.7
2017-Oct-19 22:31N 51°35' E 001°46'1223.0
2017-Oct-19 22:00N 51°47' E 001°45'815.5
2017-Oct-19 21:31N 51°52' E 001°35'4 8.7
2017-Oct-19 21:00N 51°56' E 001°33'714.3
2017-Oct-19 20:30N 51°55' E 001°21'3 5.9
2017-Oct-19 20:00N 51°58' E 001°18'0 0.1
2017-Oct-19 19:29N 51°58' E 001°18'0 0.0
2017-Oct-19 18:56N 51°58' E 001°18'0 0.0
2017-Oct-19 18:29N 51°58' E 001°18'0 0.0
2017-Oct-19 17:59N 51°58' E 001°18'0 0.0
2017-Oct-19 17:29N 51°58' E 001°18'0 0.0
2017-Oct-19 16:59N 51°58' E 001°18'0 0.0
2017-Oct-19 16:29N 51°58' E 001°18'0 0.0
2017-Oct-19 15:59N 51°58' E 001°18'0 0.0
2017-Oct-19 15:29N 51°58' E 001°18'0 0.0
2017-Oct-19 14:59N 51°58' E 001°18'0 0.0
2017-Oct-19 14:29N 51°58' E 001°18'0 0.0
2017-Oct-19 13:59N 51°58' E 001°18'0 0.0
2017-Oct-19 13:29N 51°58' E 001°18'0 0.0
2017-Oct-19 12:59N 51°58' E 001°18'0 0.0
2017-Oct-19 12:29N 51°58' E 001°18'0 0.0
2017-Oct-19 11:59N 51°58' E 001°18'0 0.0
2017-Oct-19 11:29N 51°58' E 001°18'0 0.0
2017-Oct-19 10:59N 51°58' E 001°18'0 0.0
2017-Oct-19 10:29N 51°58' E 001°18'0 0.0
2017-Oct-19 09:59N 51°58' E 001°18'0 0.0
2017-Oct-19 09:29N 51°58' E 001°18'0 0.0
2017-Oct-19 08:59N 51°58' E 001°18'0 0.0
2017-Oct-19 08:29N 51°58' E 001°18'0 0.0
2017-Oct-19 07:59N 51°58' E 001°18'0 0.0
2017-Oct-19 07:29N 51°58' E 001°18'0 0.0
2017-Oct-19 06:59N 51°58' E 001°18'0 0.0
2017-Oct-19 06:29N 51°58' E 001°18'0 0.0
2017-Oct-19 05:59N 51°58' E 001°18'0 0.0
2017-Oct-19 05:29N 51°58' E 001°18'0 0.0
2017-Oct-19 04:59N 51°58' E 001°18'0 0.0
2017-Oct-19 04:29N 51°58' E 001°18'0 0.0
2017-Oct-19 03:59N 51°58' E 001°18'0 0.0
2017-Oct-19 03:29N 51°58' E 001°18'0 0.0
2017-Oct-19 02:59N 51°58' E 001°18'0 0.0
2017-Oct-19 02:29N 51°58' E 001°18'0 0.0
2017-Oct-19 01:59N 51°58' E 001°18'0 0.0
2017-Oct-19 01:29N 51°58' E 001°18'0 0.0
2017-Oct-19 00:59N 51°58' E 001°18'0 0.0
2017-Oct-19 00:29N 51°58' E 001°18'0 0.0
2017-Oct-18 23:59N 51°58' E 001°18'0 0.0
2017-Oct-18 23:29N 51°58' E 001°18'0 0.0
2017-Oct-18 22:59N 51°58' E 001°18'0 0.0
2017-Oct-18 22:29N 51°58' E 001°18'0 0.0
2017-Oct-18 21:59N 51°58' E 001°18'0 0.0
2017-Oct-18 21:29N 51°58' E 001°18'0 0.0
2017-Oct-18 20:59N 51°58' E 001°18'0 0.0
2017-Oct-18 20:29N 51°58' E 001°18'0 0.0
2017-Oct-18 19:59N 51°58' E 001°18'0 0.0
2017-Oct-18 19:29N 51°58' E 001°18'0 0.0
2017-Oct-18 18:59N 51°58' E 001°18'0 0.0
2017-Oct-18 18:29N 51°58' E 001°18'0 0.0
2017-Oct-18 17:59N 51°58' E 001°18'0 0.0
2017-Oct-18 17:29N 51°58' E 001°18'0 0.0
2017-Oct-18 16:59N 51°58' E 001°18'0 0.0
2017-Oct-18 16:29N 51°58' E 001°18'0 0.5
2017-Oct-18 16:00N 51°57' E 001°18'1 2.7
2017-Oct-18 15:31N 51°56' E 001°19'5 9.5
2017-Oct-18 15:00N 51°56' E 001°26'1110.7
2017-Oct-18 14:00N 51°52' E 001°42'3 5.4
2017-Oct-18 13:30N 51°54' E 001°45'4 7.6
2017-Oct-18 13:00N 51°57' E 001°46'4 7.4
2017-Oct-18 12:30N 52°01' E 001°50'3 6.8
2017-Oct-18 12:00N 52°03' E 001°53'5 9.1
2017-Oct-18 11:30N 52°07' E 001°58'4 8.5
2017-Oct-18 11:00N 52°09' E 002°03'3212.7
2017-Oct-18 08:30N 52°31' E 002°41'817.0
2017-Oct-18 08:01N 52°36' E 002°53'1017.7
2017-Oct-18 07:25N 52°42' E 003°06'819.3
2017-Oct-18 07:01N 52°47' E 003°16'1020.2
2017-Oct-18 06:30N 52°53' E 003°30'1019.8
2017-Oct-18 06:00N 52°60' E 003°43'1119.6
2017-Oct-18 05:27N 53°06' E 003°57'919.3
2017-Oct-18 05:00N 53°10' E 004°10'1218.4
2017-Oct-18 04:22N 53°19' E 004°24'1018.2
2017-Oct-18 03:47N 53°27' E 004°34'518.5
2017-Oct-18 03:30N 53°29' E 004°42'917.7
2017-Oct-18 03:00N 53°33' E 004°55'918.2
2017-Oct-18 02:30N 53°36' E 005°10'1019.1
2017-Oct-18 01:58N 53°40' E 005°26'8718.0
2017-Oct-17 21:10N 53°53' E 007°51'211.2
2017-Oct-17 20:58N 53°52' E 007°54'714.1
2017-Oct-17 20:30N 53°50' E 008°05'815.5
2017-Oct-17 20:00N 53°44' E 008°14'714.7
2017-Oct-17 19:30N 53°40' E 008°23'611.9
2017-Oct-17 19:00N 53°36' E 008°31'1 2.0
2017-Oct-17 18:30N 53°35' E 008°32'0 0.0
2017-Oct-17 18:00N 53°35' E 008°32'0 0.0
2017-Oct-17 17:30N 53°35' E 008°32'0 0.0
2017-Oct-17 17:00N 53°35' E 008°32'0 0.0
2017-Oct-17 16:30N 53°35' E 008°32'0 0.0
2017-Oct-17 16:00N 53°35' E 008°32'0 0.0
2017-Oct-17 15:30N 53°35' E 008°32'0 0.0
2017-Oct-17 15:00N 53°35' E 008°32'0 0.0
2017-Oct-17 14:30N 53°35' E 008°32'0 0.0
2017-Oct-17 14:00N 53°35' E 008°32'0 0.0
2017-Oct-17 13:30N 53°35' E 008°32'0 0.0
2017-Oct-17 13:00N 53°35' E 008°32'0 0.0
2017-Oct-17 12:30N 53°35' E 008°32'0 0.0
2017-Oct-17 12:00N 53°35' E 008°32'0 0.0
2017-Oct-17 11:30N 53°35' E 008°32'0 0.0
2017-Oct-17 11:00N 53°35' E 008°32'0 0.0
2017-Oct-17 10:30N 53°35' E 008°32'0 0.0
2017-Oct-17 10:00N 53°35' E 008°32'0 0.0
2017-Oct-17 09:30N 53°35' E 008°32'0 0.0
2017-Oct-17 09:00N 53°35' E 008°32'0 0.0
2017-Oct-17 08:30N 53°35' E 008°32'0 0.0
2017-Oct-17 08:00N 53°35' E 008°32'0 0.0
2017-Oct-17 07:30N 53°35' E 008°32'0 0.0
2017-Oct-17 07:00N 53°35' E 008°32'0 0.0
2017-Oct-17 06:30N 53°35' E 008°32'0 0.0
2017-Oct-17 06:00N 53°35' E 008°32'0 0.0
2017-Oct-17 05:30N 53°35' E 008°32'0 0.0
2017-Oct-17 05:00N 53°35' E 008°32'0 0.0
2017-Oct-17 04:30N 53°35' E 008°32'0 0.0
2017-Oct-17 04:00N 53°35' E 008°32'0 0.0
2017-Oct-17 03:30N 53°35' E 008°32'0 0.0
2017-Oct-17 03:00N 53°35' E 008°32'0 0.0
2017-Oct-17 02:30N 53°35' E 008°32'0 0.0
2017-Oct-17 02:00N 53°35' E 008°32'0 0.0
2017-Oct-17 01:30N 53°35' E 008°32'0 0.0
2017-Oct-17 01:00N 53°35' E 008°32'0 0.0
2017-Oct-17 00:30N 53°35' E 008°32'0 0.0
2017-Oct-17 00:00N 53°35' E 008°32'0 0.0
2017-Oct-16 23:30N 53°35' E 008°32'0 0.0
2017-Oct-16 23:00N 53°35' E 008°32'0 0.0
2017-Oct-16 22:30N 53°35' E 008°32'0 0.0
2017-Oct-16 22:00N 53°35' E 008°32'0 0.0
2017-Oct-16 21:30N 53°35' E 008°32'0 0.0
2017-Oct-16 21:00N 53°35' E 008°32'0 0.0
2017-Oct-16 20:30N 53°35' E 008°32'0 0.0
2017-Oct-16 20:00N 53°35' E 008°32'0 0.0
2017-Oct-16 19:30N 53°35' E 008°32'0 0.0
2017-Oct-16 19:00N 53°35' E 008°32'0 0.0
2017-Oct-16 18:30N 53°35' E 008°32'0 0.0
2017-Oct-16 18:00N 53°35' E 008°32'0 0.0
2017-Oct-16 17:30N 53°35' E 008°32'0 0.0
2017-Oct-16 17:00N 53°35' E 008°32'0 0.0
2017-Oct-16 16:30N 53°35' E 008°32'0 0.0
2017-Oct-16 16:00N 53°35' E 008°32'0 0.0
2017-Oct-16 15:30N 53°35' E 008°32'0 0.0
2017-Oct-16 15:00N 53°35' E 008°32'0 0.0
2017-Oct-16 14:30N 53°35' E 008°32'0 0.0
2017-Oct-16 13:30N 53°35' E 008°32'0 0.0
2017-Oct-16 13:00N 53°35' E 008°32'0 0.0
2017-Oct-16 12:30N 53°35' E 008°32'0 0.0
2017-Oct-16 12:00N 53°35' E 008°32'0 0.0
2017-Oct-16 11:30N 53°35' E 008°32'0 0.0
2017-Oct-16 11:00N 53°35' E 008°32'0 0.0
2017-Oct-16 10:30N 53°35' E 008°32'0 0.0
2017-Oct-16 10:00N 53°35' E 008°32'0 0.0
2017-Oct-16 09:30N 53°35' E 008°32'0 0.0
2017-Oct-16 09:00N 53°35' E 008°32'0 0.0
2017-Oct-16 08:30N 53°35' E 008°32'0 0.0
2017-Oct-16 08:00N 53°35' E 008°32'0 0.0
2017-Oct-16 07:30N 53°35' E 008°32'0 0.0
2017-Oct-16 07:00N 53°35' E 008°32'0 0.0
2017-Oct-16 06:30N 53°35' E 008°32'0 0.0
2017-Oct-16 06:00N 53°35' E 008°32'0 0.0
2017-Oct-16 05:30N 53°35' E 008°32'0 0.0
2017-Oct-16 05:00N 53°35' E 008°32'0 0.0
2017-Oct-16 04:30N 53°35' E 008°32'0 0.0
2017-Oct-16 04:00N 53°35' E 008°32'0 0.0
2017-Oct-16 03:30N 53°35' E 008°32'0 0.0
2017-Oct-16 03:00N 53°35' E 008°32'0 0.0
2017-Oct-16 02:30N 53°35' E 008°32'0 0.0
2017-Oct-16 02:00N 53°35' E 008°32'0 0.0
2017-Oct-16 01:30N 53°35' E 008°32'0 0.0
2017-Oct-16 01:00N 53°35' E 008°32'0 0.0
2017-Oct-16 00:30N 53°35' E 008°32'0 0.0
2017-Oct-16 00:00N 53°35' E 008°32'0 0.4
2017-Oct-15 23:30N 53°35' E 008°32'3 6.7
2017-Oct-15 23:00N 53°37' E 008°28'510.5
2017-Oct-15 22:30N 53°41' E 008°21'815.1
2017-Oct-15 22:00N 53°46' E 008°11'713.9
2017-Oct-15 21:30N 53°50' E 008°03'713.0
2017-Oct-15 21:00N 53°52' E 007°52'510.2
2017-Oct-15 20:30N 53°53' E 007°44'6 9.6
2017-Oct-15 19:54N 53°53' E 007°34'2 4.6
2017-Oct-15 19:30N 53°53' E 007°31'1 1.2
2017-Oct-15 19:01N 53°53' E 007°30'3 6.1
2017-Oct-15 18:30N 53°53' E 007°25'4 8.9
2017-Oct-15 18:00N 53°52' E 007°17'5 9.4
2017-Oct-15 17:26N 53°51' E 007°08'510.8
2017-Oct-15 16:59N 53°51' E 007°00'511.0
2017-Oct-15 16:30N 53°49' E 006°51'714.7
2017-Oct-15 16:00N 53°47' E 006°40'816.1
2017-Oct-15 15:30N 53°44' E 006°27'816.0
2017-Oct-15 15:00N 53°42' E 006°14'1716.0
2017-Oct-15 13:57N 53°37' E 005°47'715.9
2017-Oct-15 13:30N 53°35' E 005°35'816.0
2017-Oct-15 13:00N 53°33' E 005°23'915.9
2017-Oct-15 12:27N 53°30' E 005°08'715.9
2017-Oct-15 12:00N 53°28' E 004°57'815.9
2017-Oct-15 11:30N 53°24' E 004°45'918.0
2017-Oct-15 11:01N 53°17' E 004°38'918.2
2017-Oct-15 10:30N 53°08' E 004°31'917.7
2017-Oct-15 10:00N 53°00' E 004°24'917.5
2017-Oct-15 09:30N 52°53' E 004°17'917.4
2017-Oct-15 09:00N 52°45' E 004°10'817.0
2017-Oct-15 08:30N 52°39' E 004°00'917.8
2017-Oct-15 08:00N 52°33' E 003°50'917.6
2017-Oct-15 07:30N 52°27' E 003°39'917.4
2017-Oct-15 07:00N 52°20' E 003°30'917.3
2017-Oct-15 06:30N 52°14' E 003°21'917.1
2017-Oct-15 06:00N 52°08' E 003°11'917.9
2017-Oct-15 05:30N 52°01' E 003°00'917.8
2017-Oct-15 05:00N 51°55' E 002°51'917.6
2017-Oct-15 04:30N 51°48' E 002°42'917.6
2017-Oct-15 04:00N 51°42' E 002°31'917.5
2017-Oct-15 03:30N 51°35' E 002°22'917.4
2017-Oct-15 03:00N 51°30' E 002°12'917.5
2017-Oct-15 02:30N 51°24' E 002°01'917.4
2017-Oct-15 02:00N 51°16' E 001°53'917.2
2017-Oct-15 01:30N 51°10' E 001°45'816.9
2017-Oct-15 01:00N 51°03' E 001°38'816.4
2017-Oct-15 00:30N 50°56' E 001°31'816.3
2017-Oct-15 00:00N 50°49' E 001°24'816.8
2017-Oct-14 23:30N 50°41' E 001°19'816.8
2017-Oct-14 23:00N 50°35' E 001°10'1016.9
2017-Oct-14 22:25N 50°28' E 000°59'716.6
2017-Oct-14 22:00N 50°26' E 000°48'816.7
2017-Oct-14 21:30N 50°24' E 000°36'816.7
2017-Oct-14 21:00N 50°22' E 000°23'816.7
2017-Oct-14 20:30N 50°19' E 000°11'816.8
2017-Oct-14 20:00N 50°17' W 000°02'817.0
2017-Oct-14 19:30N 50°13' W 000°13'917.2
2017-Oct-14 19:00N 50°09' W 000°26'917.5
2017-Oct-14 18:31N 50°05' W 000°38'917.8
2017-Oct-14 18:00N 50°01' W 000°50'918.3
2017-Oct-14 17:30N 49°57' W 001°03'918.6
2017-Oct-14 17:01N 49°52' W 001°15'1019.0
2017-Oct-14 16:31N 49°48' W 001°28'917.3
2017-Oct-14 16:00N 49°43' W 001°40'4 8.9
2017-Oct-14 15:30N 49°45' W 001°46'611.0
2017-Oct-14 15:00N 49°48' W 001°54'510.9
2017-Oct-14 14:30N 49°50' W 002°01'917.0
2017-Oct-14 14:00N 49°54' W 002°14'918.6
2017-Oct-14 13:30N 49°53' W 002°28'918.5
2017-Oct-14 13:00N 49°51' W 002°42'918.2
2017-Oct-14 12:30N 49°49' W 002°55'918.0
2017-Oct-14 12:00N 49°49' W 003°09'918.0
2017-Oct-14 11:30N 49°48' W 003°23'917.9
2017-Oct-14 11:01N 49°48' W 003°37'917.7
2017-Oct-14 10:30N 49°47' W 003°51'917.6
2017-Oct-14 10:01N 49°45' W 004°04'917.5
2017-Oct-14 09:30N 49°45' W 004°18'917.5
2017-Oct-14 09:01N 49°44' W 004°31'917.5
2017-Oct-14 08:30N 49°44' W 004°45'917.4
2017-Oct-14 08:00N 49°43' W 004°58'917.4
2017-Oct-14 07:30N 49°42' W 005°12'917.3
2017-Oct-14 07:00N 49°42' W 005°25'1017.4
2017-Oct-14 06:25N 49°41' W 005°41'717.2
2017-Oct-14 06:01N 49°40' W 005°52'1017.2
2017-Oct-14 05:25N 49°39' W 006°08'716.9
2017-Oct-14 05:00N 49°39' W 006°18'916.9
2017-Oct-14 04:29N 49°38' W 006°32'816.9
2017-Oct-14 04:00N 49°36' W 006°44'917.4
2017-Oct-14 03:29N 49°34' W 006°58'817.7
2017-Oct-14 03:01N 49°32' W 007°10'  

Dump ship's entire track history